Terminal Aerodrome Forecast
Issued by NWS

Home | Current Version | Previous Version | Text Only | Print | Product List | Glossary On
Versions: 1 2 3 4 5 6 7 8 9 10 11 12 13 14 15 16 17
000
FTUS42 KGSP 281100
TAFAND
TAF
KAND 281122Z 2812/2912 24008KT P6SM SCT180
     FM281600 28012G20KT P6SM FEW060 SCT250
     FM290000 29009KT P6SM FEW250
     FM290600 00000KT P6SM SKC=

USA.gov is the U.S. government's official web portal to all federal, state and local government web resources and services.